Aviation Digital Data Service (ADDS)

Output produced by METARs form (1450 UTC 23 January 2019)
found at http://www.aviationweather.gov/metar/data/
 
Forecast for: OITT (TABRIZ(IRAN-AB/C, IR)
Text: TAF OITT 231100Z 2312/2418 07006KT 7000 NSC
Forecast period: 1200 UTC 23 January 2019 to 0100 UTC 24 January 2019
Forecast type: FROM: standard forecast or significant change
Winds: from the ENE (70 degrees) at 7 MPH (6 knots; 3.1 m/s)
Visibility: 4 miles (7 km)
Ceiling: unknown
Clouds: missing
Weather: no significant weather forecast for this period
Text: BECMG 2401/2403 3000 HZ NSC
Forecast period: 0100 to 1200 UTC 24 January 2019
Forecast type: BECOMING: Conditions expected to become as follows by 0300 UTC 24 January 2019
Winds: from the ENE (70 degrees) at 7 MPH (6 knots; 3.1 m/s)
Visibility: 1.86 miles (2.99 km)
Ceiling: unknown
Clouds: missing
Weather: HZ  (haze)
Text: BECMG 2412/2414 7000
Forecast period: 1200 to 1800 UTC 24 January 2019
Forecast type: BECOMING: Conditions expected to become as follows by 1400 UTC 24 January 2019
Winds: from the ENE (70 degrees) at 7 MPH (6 knots; 3.1 m/s)
Visibility: 4 miles (7 km)
Ceiling: unknown
Clouds: missing
Weather: HZ  (haze)